Time;durP1;ratioP1;P1;durP2;ratioP2;P2;SDS_P1;SDS_P2;PMS_P1;PMS_P2;Temp;Humidity;BMP_temperature;BMP_pressure;BME280_temperature;BME280_humidity;BME280_pressure;Samples;Min_cycle;Max_cycle;Signal;HPM_P1;HPM_P2
2022/07/04 00:00:42;;;;;;;1.40;1.30;;;22.90;48.00;;;;;;4940145;29;20476;-56
2022/07/04 00:03:08;;;;;;;1.30;1.20;;;22.90;48.00;;;;;;4934881;29;20898;-57
2022/07/04 00:05:33;;;;;;;1.50;1.40;;;22.90;48.00;;;;;;4936424;29;20190;-56
2022/07/04 00:07:59;;;;;;;1.40;1.30;;;22.80;47.90;;;;;;4935013;29;20241;-55
2022/07/04 00:10:24;;;;;;;1.37;1.27;;;22.90;48.00;;;;;;4935349;29;20258;-58
2022/07/04 00:12:51;;;;;;;1.30;1.20;;;22.90;48.00;;;;;;4940883;29;20264;-55
2022/07/04 00:15:16;;;;;;;1.50;1.40;;;22.90;48.00;;;;;;4935079;29;20191;-58
2022/07/04 00:17:42;;;;;;;1.40;1.30;;;22.90;48.00;;;;;;4935688;29;20436;-57
2022/07/04 00:20:10;;;;;;;1.47;1.37;;;22.90;48.00;;;;;;4932141;29;20262;-56
2022/07/04 00:22:36;;;;;;;1.67;1.57;;;22.90;48.00;;;;;;4935369;29;20179;-55
2022/07/04 00:25:02;;;;;;;1.40;1.30;;;22.90;48.80;;;;;;4934773;29;20831;-65
2022/07/04 00:27:27;;;;;;;1.60;1.50;;;22.90;48.00;;;;;;4935784;29;20421;-59
2022/07/04 00:29:53;;;;;;;1.50;1.40;;;22.90;48.00;;;;;;4934251;29;20474;-57
2022/07/04 00:32:19;;;;;;;1.40;1.30;;;22.90;48.00;;;;;;4936363;29;20187;-58
2022/07/04 00:34:45;;;;;;;1.33;1.17;;;22.90;48.00;;;;;;4919352;29;20268;-55
2022/07/04 00:37:10;;;;;;;1.47;1.37;;;22.90;48.00;;;;;;4939901;29;20193;-56
2022/07/04 00:39:36;;;;;;;1.27;1.17;;;22.90;47.90;;;;;;4937817;29;20202;-60
2022/07/04 00:42:02;;;;;;;1.50;1.40;;;22.90;48.00;;;;;;4938539;29;20236;-64
2022/07/04 00:44:27;;;;;;;1.33;1.23;;;22.90;48.00;;;;;;4935170;29;20233;-57
2022/07/04 00:46:53;;;;;;;1.40;1.30;;;22.90;48.00;;;;;;4935999;29;20190;-62
2022/07/04 00:49:18;;;;;;;1.23;1.13;;;22.90;48.00;;;;;;4930928;29;20238;-57
2022/07/04 00:51:45;;;;;;;1.30;1.20;;;22.90;48.00;;;;;;4938069;29;20195;-56
2022/07/04 00:54:14;;;;;;;1.10;1.10;;;22.90;48.00;;;;;;4936372;29;20191;-56
2022/07/04 00:56:41;;;;;;;1.30;1.20;;;22.90;48.00;;;;;;4937898;29;20439;-56
2022/07/04 00:59:08;;;;;;;1.30;1.20;;;22.90;48.10;;;;;;4935507;29;20439;-57
2022/07/04 01:01:34;;;;;;;1.40;1.30;;;22.90;48.00;;;;;;4936933;29;20417;-56
2022/07/04 01:04:02;;;;;;;1.40;1.30;;;22.90;48.00;;;;;;4932827;29;20528;-56
2022/07/04 01:06:28;;;;;;;1.40;1.30;;;22.90;48.00;;;;;;4937554;29;20433;-59
2022/07/04 01:08:54;;;;;;;1.30;1.20;;;22.90;48.00;;;;;;4936518;29;20796;-59
2022/07/04 01:11:19;;;;;;;1.47;1.37;;;22.90;48.00;;;;;;4920369;29;20428;-57
2022/07/04 01:13:45;;;;;;;1.20;1.10;;;22.90;48.00;;;;;;4936156;29;20223;-56
2022/07/04 01:16:11;;;;;;;1.40;1.30;;;22.90;48.00;;;;;;4935862;29;20212;-55
2022/07/04 01:18:37;;;;;;;1.30;1.20;;;22.90;48.00;;;;;;4934848;29;20818;-55
2022/07/04 01:21:03;;;;;;;1.63;1.53;;;22.90;48.00;;;;;;4942155;29;20424;-56
2022/07/04 01:23:29;;;;;;;1.20;1.10;;;22.80;47.90;;;;;;4934647;29;20523;-57
2022/07/04 01:25:56;;;;;;;1.30;1.20;;;22.90;48.10;;;;;;4934412;29;21264;-56
2022/07/04 01:28:22;;;;;;;1.30;1.20;;;22.90;48.00;;;;;;4938437;29;20265;-59
2022/07/04 01:30:48;;;;;;;1.27;1.17;;;22.90;48.00;;;;;;4931100;29;20444;-58
2022/07/04 01:33:17;;;;;;;1.30;1.20;;;22.90;47.90;;;;;;4935624;29;20523;-60
2022/07/04 01:35:43;;;;;;;1.37;1.27;;;22.90;48.00;;;;;;4932773;29;20207;-55
2022/07/04 01:38:08;;;;;;;1.10;1.10;;;22.90;48.00;;;;;;4933482;29;20432;-58
2022/07/04 01:40:34;;;;;;;1.30;1.20;;;22.90;48.00;;;;;;4933707;29;20433;-56
2022/07/04 01:43:00;;;;;;;1.20;1.10;;;22.90;48.00;;;;;;4935894;29;20231;-56
2022/07/04 01:45:26;;;;;;;1.47;1.37;;;22.90;48.00;;;;;;4935579;29;20440;-56
2022/07/04 01:47:51;;;;;;;1.10;1.10;;;22.90;48.00;;;;;;4936684;29;20185;-56
2022/07/04 01:50:17;;;;;;;1.40;1.30;;;22.90;48.00;;;;;;4935011;29;20190;-61
2022/07/04 01:52:43;;;;;;;1.40;1.30;;;22.90;48.00;;;;;;4935568;29;20597;-57
2022/07/04 01:55:10;;;;;;;1.20;1.20;;;22.90;48.00;;;;;;4942900;29;20176;-57
2022/07/04 01:57:36;;;;;;;1.30;1.20;;;22.90;48.70;;;;;;4938282;29;20242;-56
2022/07/04 02:02:49;;;;;;;1.30;1.20;;;22.90;48.00;;;;;;4938810;29;20460;-56
2022/07/04 02:05:15;;;;;;;1.17;1.07;;;22.90;48.00;;;;;;4939980;29;20457;-57
2022/07/04 02:07:40;;;;;;;1.50;1.40;;;22.90;48.00;;;;;;4941893;29;20250;-56
2022/07/04 02:10:06;;;;;;;1.20;1.10;;;22.90;48.00;;;;;;4935363;29;20476;-57
2022/07/04 02:15:16;;;;;;;1.20;1.10;;;22.90;48.00;;;;;;4937242;29;20589;-56
2022/07/04 02:17:42;;;;;;;1.30;1.20;;;22.90;48.00;;;;;;4934189;29;20424;-56
2022/07/04 02:20:08;;;;;;;1.27;1.17;;;22.90;48.00;;;;;;4940487;29;20654;-56
2022/07/04 02:22:33;;;;;;;1.40;1.30;;;22.90;48.00;;;;;;4937255;29;20182;-58
2022/07/04 02:24:59;;;;;;;1.20;1.13;;;22.90;47.90;;;;;;4940862;29;20429;-56
2022/07/04 02:27:24;;;;;;;1.37;1.27;;;22.90;48.00;;;;;;4934073;29;20642;-59
2022/07/04 02:29:50;;;;;;;1.50;1.40;;;22.90;48.00;;;;;;4939631;29;20210;-55
2022/07/04 02:32:15;;;;;;;1.20;1.10;;;22.90;47.90;;;;;;4935966;29;20795;-58
2022/07/04 02:34:41;;;;;;;1.37;1.27;;;22.90;48.00;;;;;;4939846;29;20808;-56
2022/07/04 02:37:07;;;;;;;1.10;1.00;;;22.90;48.70;;;;;;4936942;29;20542;-56
2022/07/04 02:39:32;;;;;;;1.07;1.07;;;22.90;48.00;;;;;;4940907;29;20217;-61
2022/07/04 02:41:58;;;;;;;1.30;1.20;;;22.90;48.00;;;;;;4929612;29;20234;-56
2022/07/04 02:44:24;;;;;;;1.10;1.10;;;22.90;48.70;;;;;;4912821;29;20179;-56
2022/07/04 02:46:50;;;;;;;1.27;1.17;;;22.90;48.00;;;;;;4907732;29;20187;-56
2022/07/04 02:49:15;;;;;;;1.27;1.20;;;22.90;48.00;;;;;;4912930;29;20470;-58
2022/07/04 02:51:41;;;;;;;1.30;1.20;;;22.90;48.00;;;;;;4916878;29;20217;-56
2022/07/04 02:54:07;;;;;;;1.30;1.20;;;22.90;48.00;;;;;;4911614;29;20196;-58
2022/07/04 02:56:33;;;;;;;1.30;1.20;;;22.90;48.00;;;;;;4919249;29;20897;-58
2022/07/04 02:58:59;;;;;;;1.30;1.20;;;22.90;48.00;;;;;;4918856;29;20659;-57
2022/07/04 03:01:24;;;;;;;1.30;1.20;;;22.90;48.00;;;;;;4917439;29;20176;-58
2022/07/04 03:03:50;;;;;;;0.97;0.97;;;22.90;47.90;;;;;;4915200;29;20230;-58
2022/07/04 03:06:16;;;;;;;1.33;1.23;;;22.90;48.00;;;;;;4912298;29;20270;-64
2022/07/04 03:08:42;;;;;;;1.30;1.20;;;22.90;48.00;;;;;;4915185;29;20944;-56
2022/07/04 03:11:08;;;;;;;1.40;1.30;;;22.90;47.90;;;;;;4913553;29;20478;-56
2022/07/04 03:13:34;;;;;;;1.23;1.13;;;22.90;48.00;;;;;;4915479;29;20187;-56
2022/07/04 03:15:59;;;;;;;1.20;1.10;;;22.90;47.90;;;;;;4915079;29;20200;-56
2022/07/04 03:18:25;;;;;;;1.00;1.00;;;22.90;47.90;;;;;;4909881;29;20189;-58
2022/07/04 03:20:50;;;;;;;1.30;1.20;;;22.90;48.00;;;;;;4912830;29;20259;-56
2022/07/04 03:23:16;;;;;;;1.20;1.10;;;22.90;48.00;;;;;;4914235;29;20274;-61
2022/07/04 03:25:42;;;;;;;1.20;1.10;;;22.90;48.00;;;;;;4910707;29;20195;-56
2022/07/04 03:28:08;;;;;;;1.20;1.10;;;22.90;48.00;;;;;;4916136;29;20475;-56
2022/07/04 03:30:34;;;;;;;1.00;1.00;;;22.90;48.00;;;;;;4919108;29;20218;-57
2022/07/04 03:33:00;;;;;;;1.23;1.13;;;22.90;47.90;;;;;;4909721;29;20441;-59
2022/07/04 03:35:26;;;;;;;1.00;1.00;;;22.90;47.90;;;;;;4909780;29;20438;-59
2022/07/04 03:37:52;;;;;;;1.27;1.17;;;22.90;47.90;;;;;;4912082;29;20594;-55
2022/07/04 03:40:19;;;;;;;1.20;1.10;;;22.90;47.90;;;;;;4911439;29;20623;-56
2022/07/04 03:42:45;;;;;;;1.20;1.10;;;22.90;48.00;;;;;;4932034;29;20881;-58
2022/07/04 03:45:10;;;;;;;0.90;0.90;;;22.80;47.80;;;;;;4936103;29;20429;-57
2022/07/04 03:47:36;;;;;;;1.17;1.07;;;22.90;48.00;;;;;;4938861;29;20891;-58
2022/07/04 03:50:03;;;;;;;1.40;1.30;;;22.90;48.00;;;;;;4935384;29;20608;-60
2022/07/04 03:52:29;;;;;;;1.20;1.10;;;22.90;47.90;;;;;;4934876;29;20187;-59
2022/07/04 03:54:54;;;;;;;1.20;1.10;;;22.90;47.90;;;;;;4938219;29;20476;-61
2022/07/04 03:57:20;;;;;;;1.17;1.10;;;22.90;47.90;;;;;;4936473;29;20674;-55
2022/07/04 03:59:45;;;;;;;1.23;1.13;;;22.90;47.90;;;;;;4936523;29;20190;-64
2022/07/04 04:02:11;;;;;;;1.13;1.03;;;22.90;47.90;;;;;;4934655;29;20630;-56
2022/07/04 04:07:21;;;;;;;1.20;1.10;;;22.90;47.90;;;;;;4939884;29;20185;-60
2022/07/04 04:09:46;;;;;;;1.20;1.10;;;22.90;48.60;;;;;;4936664;29;20476;-55
2022/07/04 04:12:12;;;;;;;1.10;1.00;;;22.90;47.90;;;;;;4937866;29;20281;-56
2022/07/04 04:14:38;;;;;;;1.40;1.30;;;22.90;47.90;;;;;;4936133;29;20634;-57
2022/07/04 04:17:03;;;;;;;1.10;1.00;;;22.90;48.00;;;;;;4934976;29;20639;-55
2022/07/04 04:19:29;;;;;;;1.10;1.00;;;22.90;47.90;;;;;;4938612;29;20198;-56
2022/07/04 04:21:55;;;;;;;1.30;1.20;;;22.90;48.00;;;;;;4937745;29;20433;-59
2022/07/04 04:24:21;;;;;;;1.20;1.10;;;22.90;47.90;;;;;;4938683;29;20542;-56
2022/07/04 04:26:46;;;;;;;1.23;1.13;;;22.90;47.90;;;;;;4936256;29;20194;-59
2022/07/04 04:29:12;;;;;;;1.10;1.03;;;22.90;47.90;;;;;;4936278;29;20215;-57
2022/07/04 04:31:37;;;;;;;1.20;1.10;;;22.80;48.60;;;;;;4935519;29;20197;-55
2022/07/04 04:34:03;;;;;;;1.10;1.00;;;22.90;47.90;;;;;;4937505;29;20190;-55
2022/07/04 04:36:29;;;;;;;1.10;1.00;;;22.90;47.90;;;;;;4933919;29;20191;-59
2022/07/04 04:38:54;;;;;;;1.20;1.10;;;22.90;47.90;;;;;;4937154;29;20183;-56
2022/07/04 04:41:20;;;;;;;1.03;1.03;;;22.90;47.90;;;;;;4931416;29;20258;-55
2022/07/04 04:43:45;;;;;;;1.00;1.00;;;22.90;47.90;;;;;;4919417;29;20191;-55
2022/07/04 04:46:11;;;;;;;1.13;1.07;;;22.90;47.90;;;;;;4919612;29;20191;-57
2022/07/04 04:48:37;;;;;;;1.00;1.00;;;22.90;47.90;;;;;;4913161;29;20215;-55
2022/07/04 04:51:02;;;;;;;1.03;1.00;;;22.90;47.90;;;;;;4918378;29;20642;-56
2022/07/04 04:53:29;;;;;;;1.20;1.10;;;22.90;47.90;;;;;;4916382;29;20554;-59
2022/07/04 04:55:54;;;;;;;1.00;1.00;;;22.90;47.90;;;;;;4920195;29;20627;-56
2022/07/04 04:58:21;;;;;;;0.93;0.90;;;22.90;47.90;;;;;;4916326;29;20481;-56
2022/07/04 05:00:49;;;;;;;1.10;1.10;;;22.90;47.90;;;;;;4920538;29;20190;-56
2022/07/04 05:03:17;;;;;;;1.10;1.10;;;22.90;47.90;;;;;;4915006;29;20453;-55
2022/07/04 05:05:44;;;;;;;1.10;1.00;;;22.90;47.90;;;;;;4916110;29;20434;-56
2022/07/04 05:08:10;;;;;;;1.10;1.10;;;22.90;47.90;;;;;;4919998;29;20446;-57
2022/07/04 05:10:36;;;;;;;1.30;1.20;;;22.90;47.90;;;;;;4914097;29;20576;-58
2022/07/04 05:13:02;;;;;;;1.00;1.00;;;22.90;47.80;;;;;;4921342;29;20193;-56
2022/07/04 05:15:27;;;;;;;1.10;1.10;;;22.90;47.90;;;;;;4920831;29;20187;-58
2022/07/04 05:17:53;;;;;;;1.27;1.17;;;22.80;47.80;;;;;;4913750;29;20718;-57
2022/07/04 05:20:18;;;;;;;1.30;1.20;;;22.80;47.80;;;;;;4919023;29;20189;-55
2022/07/04 05:22:44;;;;;;;1.20;1.10;;;22.90;47.90;;;;;;4913881;29;20198;-55
2022/07/04 05:25:09;;;;;;;1.20;1.10;;;22.90;47.90;;;;;;4918375;29;20188;-56
2022/07/04 05:27:37;;;;;;;1.00;1.00;;;22.90;47.90;;;;;;4919964;29;20187;-56
2022/07/04 05:30:03;;;;;;;1.20;1.10;;;22.90;47.90;;;;;;4918096;29;20222;-56
2022/07/04 05:32:28;;;;;;;0.90;0.90;;;22.80;47.80;;;;;;4914339;29;20438;-57
2022/07/04 05:34:54;;;;;;;1.10;1.00;;;22.90;47.90;;;;;;4917982;29;20298;-59
2022/07/04 05:37:20;;;;;;;1.10;1.00;;;22.90;47.90;;;;;;4919748;29;20180;-58
2022/07/04 05:39:45;;;;;;;1.03;1.00;;;22.90;47.90;;;;;;4918103;29;20983;-60
2022/07/04 05:42:11;;;;;;;1.00;1.00;;;22.90;47.80;;;;;;4934958;29;20234;-58
2022/07/04 05:44:36;;;;;;;1.00;1.00;;;22.90;47.90;;;;;;4941292;29;20219;-56
2022/07/04 05:47:02;;;;;;;0.90;0.90;;;22.90;47.90;;;;;;4938912;29;20190;-56
2022/07/04 05:49:28;;;;;;;1.10;1.00;;;22.90;47.90;;;;;;4938837;29;20211;-59
2022/07/04 05:51:53;;;;;;;1.10;1.00;;;22.90;47.90;;;;;;4937024;29;20183;-64
2022/07/04 05:54:19;;;;;;;1.07;0.97;;;22.90;47.90;;;;;;4940019;29;20193;-55
2022/07/04 05:56:44;;;;;;;1.20;1.10;;;22.90;47.80;;;;;;4936598;29;20540;-55
2022/07/04 05:59:10;;;;;;;1.00;1.00;;;22.90;47.80;;;;;;4943170;29;20546;-56
2022/07/04 06:01:36;;;;;;;1.00;1.00;;;22.90;47.90;;;;;;4940920;29;20186;-57
2022/07/04 06:04:03;;;;;;;1.10;1.00;;;22.80;47.80;;;;;;4939267;29;20646;-55
2022/07/04 06:06:29;;;;;;;1.20;1.10;;;22.90;47.90;;;;;;4938744;29;20433;-59
2022/07/04 06:08:56;;;;;;;1.20;1.10;;;22.90;47.90;;;;;;4937910;29;20492;-59
2022/07/04 06:11:21;;;;;;;0.90;0.90;;;22.90;47.90;;;;;;4937631;29;20447;-61
2022/07/04 06:13:47;;;;;;;1.00;1.00;;;22.90;47.90;;;;;;4941701;29;20424;-61
2022/07/04 06:16:13;;;;;;;1.30;1.00;;;22.90;47.90;;;;;;4935463;29;20664;-55
2022/07/04 06:18:39;;;;;;;1.17;1.10;;;22.90;47.90;;;;;;4938844;29;20591;-56
2022/07/04 06:21:05;;;;;;;1.23;1.13;;;22.90;47.90;;;;;;4922407;29;20641;-58
2022/07/04 06:23:30;;;;;;;1.37;0.97;;;22.90;47.90;;;;;;4939326;29;20829;-56
2022/07/04 06:25:56;;;;;;;1.10;1.10;;;22.90;47.90;;;;;;4939071;29;20189;-60
2022/07/04 06:28:21;;;;;;;0.97;0.97;;;22.90;47.90;;;;;;4938513;29;20318;-58
2022/07/04 06:30:47;;;;;;;1.00;1.00;;;22.90;47.90;;;;;;4938536;29;20187;-56
2022/07/04 06:33:12;;;;;;;0.90;0.90;;;22.90;47.90;;;;;;4940032;29;20190;-58
2022/07/04 06:35:56;;;;;;;1.10;1.00;;;22.90;47.90;;;;;;4941048;29;20217;-56
2022/07/04 06:38:26;;;;;;;1.50;1.40;;;22.90;47.90;;;;;;4937374;29;20174;-58
2022/07/04 06:40:57;;;;;;;1.20;1.10;;;22.90;47.90;;;;;;4941516;29;20924;-56
2022/07/04 06:43:23;;;;;;;1.40;1.07;;;22.90;47.90;;;;;;4935753;29;20436;-55
2022/07/04 06:45:49;;;;;;;1.30;1.20;;;22.90;48.70;;;;;;4937804;29;20433;-57
2022/07/04 06:48:15;;;;;;;1.00;0.90;;;22.90;47.90;;;;;;4921040;29;20433;-55
2022/07/04 06:50:40;;;;;;;1.17;1.07;;;22.90;47.90;;;;;;4938388;29;20195;-56
2022/07/04 06:53:08;;;;;;;1.07;1.07;;;22.90;47.90;;;;;;4937688;29;20241;-56
2022/07/04 06:55:35;;;;;;;1.20;1.10;;;22.90;47.90;;;;;;4936011;29;20186;-55
2022/07/04 06:58:01;;;;;;;1.17;1.07;;;22.90;47.90;;;;;;4933402;29;20950;-58
2022/07/04 07:00:27;;;;;;;1.40;1.30;;;22.90;47.90;;;;;;4938061;29;20451;-56
2022/07/04 07:02:52;;;;;;;0.90;0.90;;;22.90;47.90;;;;;;4936557;29;20183;-57
2022/07/04 07:05:18;;;;;;;1.27;1.20;;;22.90;47.90;;;;;;4940249;29;20596;-55
2022/07/04 07:07:43;;;;;;;1.07;1.00;;;22.90;47.90;;;;;;4940598;29;20187;-56
2022/07/04 07:10:09;;;;;;;1.23;0.90;;;22.90;47.90;;;;;;4936855;29;20716;-62
2022/07/04 07:12:35;;;;;;;1.17;1.17;;;22.90;47.90;;;;;;4938216;29;20191;-55
2022/07/04 07:15:01;;;;;;;1.30;1.20;;;22.90;47.90;;;;;;4935410;29;20257;-56
2022/07/04 07:17:27;;;;;;;0.90;0.90;;;22.90;47.90;;;;;;4935712;29;20564;-57
2022/07/04 07:19:53;;;;;;;1.13;1.10;;;22.90;47.90;;;;;;4922382;29;20554;-57
2022/07/04 07:22:19;;;;;;;1.30;1.20;;;22.90;47.90;;;;;;4940488;29;20434;-55
2022/07/04 07:24:45;;;;;;;1.33;1.00;;;22.90;47.90;;;;;;4936831;29;20257;-55
2022/07/04 07:27:10;;;;;;;1.30;1.20;;;22.90;47.90;;;;;;4937281;29;20218;-58
2022/07/04 07:29:37;;;;;;;1.23;1.13;;;22.90;47.80;;;;;;4936294;29;20215;-60
2022/07/04 07:32:04;;;;;;;1.30;1.20;;;22.90;47.80;;;;;;4935712;29;20194;-59
2022/07/04 07:34:29;;;;;;;1.00;1.00;;;22.90;47.80;;;;;;4939004;29;20420;-60
2022/07/04 07:36:56;;;;;;;1.07;1.03;;;22.90;47.90;;;;;;4937752;29;20951;-57
2022/07/04 07:39:21;;;;;;;1.30;1.20;;;22.90;47.90;;;;;;4937258;29;20191;-61
2022/07/04 07:41:47;;;;;;;1.20;1.10;;;22.90;47.80;;;;;;4937633;29;20475;-56
2022/07/04 07:44:13;;;;;;;1.10;1.00;;;22.90;47.90;;;;;;4935732;29;20187;-56
2022/07/04 07:46:39;;;;;;;1.10;1.07;;;22.90;47.90;;;;;;4940296;29;20191;-56
2022/07/04 07:49:04;;;;;;;1.10;1.10;;;22.90;47.90;;;;;;4934285;29;20487;-56
2022/07/04 07:51:30;;;;;;;1.00;1.00;;;22.90;47.90;;;;;;4935963;29;20202;-55
2022/07/04 07:53:56;;;;;;;1.00;1.00;;;22.90;47.80;;;;;;4914915;29;20199;-58
2022/07/04 07:56:22;;;;;;;0.97;0.97;;;22.90;47.90;;;;;;4935055;29;20273;-59
2022/07/04 07:58:49;;;;;;;1.43;1.33;;;22.90;47.90;;;;;;4936071;29;20282;-56
2022/07/04 08:01:15;;;;;;;1.27;1.17;;;22.90;47.90;;;;;;4940716;29;20436;-56
2022/07/04 08:06:24;;;;;;;1.27;1.17;;;22.90;47.90;;;;;;4938225;29;20245;-58
2022/07/04 08:08:50;;;;;;;1.30;1.20;;;22.90;47.90;;;;;;4938812;29;21037;-56
2022/07/04 08:11:16;;;;;;;1.23;1.00;;;22.90;47.90;;;;;;4939666;29;20782;-60
2022/07/04 08:13:42;;;;;;;1.27;1.17;;;22.90;47.80;;;;;;4932904;29;20290;-55
2022/07/04 08:16:08;;;;;;;1.20;1.10;;;22.90;47.90;;;;;;4937900;29;20500;-55
2022/07/04 08:18:34;;;;;;;1.30;1.20;;;22.90;47.80;;;;;;4933240;29;20191;-55
2022/07/04 08:21:00;;;;;;;1.47;1.37;;;22.90;47.90;;;;;;4936652;29;20440;-56
2022/07/04 08:23:28;;;;;;;1.37;1.27;;;22.90;47.80;;;;;;4917994;29;20684;-60
2022/07/04 08:25:53;;;;;;;1.33;1.23;;;22.90;47.80;;;;;;4940276;29;20431;-58
2022/07/04 08:28:19;;;;;;;1.40;1.30;;;22.90;47.80;;;;;;4935437;29;20791;-56
2022/07/04 08:30:45;;;;;;;1.30;1.20;;;22.90;47.80;;;;;;4936861;29;20662;-56
2022/07/04 08:33:10;;;;;;;1.20;1.10;;;22.90;47.80;;;;;;4938635;29;20178;-56
2022/07/04 08:35:36;;;;;;;1.43;1.33;;;22.90;47.80;;;;;;4934670;29;20191;-61
2022/07/04 08:38:02;;;;;;;1.33;1.23;;;22.90;47.80;;;;;;4935439;29;20617;-56
2022/07/04 08:40:29;;;;;;;1.40;1.30;;;22.90;47.80;;;;;;4937734;29;20325;-60
2022/07/04 08:42:56;;;;;;;1.30;1.20;;;22.90;47.80;;;;;;4937859;29;20314;-58
2022/07/04 08:45:35;;;;;;;1.20;1.10;;;22.90;47.80;;;;;;4936679;29;20946;-57
2022/07/04 08:48:03;;;;;;;1.27;1.17;;;22.90;47.70;;;;;;4938954;29;21273;-60
2022/07/04 08:50:43;;;;;;;1.30;1.20;;;22.90;47.80;;;;;;4934075;29;20457;-62
2022/07/04 08:53:15;;;;;;;1.60;1.50;;;22.90;47.80;;;;;;4932924;29;20440;-56
2022/07/04 08:58:31;;;;;;;1.40;1.30;;;22.90;47.80;;;;;;4935587;29;20515;-56
2022/07/04 09:00:58;;;;;;;1.27;1.17;;;22.90;47.80;;;;;;4937032;29;20424;-57
2022/07/04 09:03:25;;;;;;;1.40;1.30;;;22.90;47.80;;;;;;4933079;29;20498;-58
2022/07/04 09:05:51;;;;;;;1.30;1.20;;;22.90;47.80;;;;;;4933385;29;20483;-55
2022/07/04 09:08:17;;;;;;;1.33;1.23;;;22.90;47.80;;;;;;4934065;29;20508;-55
2022/07/04 09:10:43;;;;;;;1.40;1.30;;;22.90;47.80;;;;;;4936198;29;20520;-57
2022/07/04 09:13:14;;;;;;;1.30;1.20;;;22.90;47.80;;;;;;4936154;29;20207;-56
2022/07/04 09:15:42;;;;;;;1.67;1.57;;;22.90;47.80;;;;;;4938876;29;20183;-58
2022/07/04 09:18:19;;;;;;;1.40;1.30;;;22.90;47.80;;;;;;4939527;29;20437;-57
2022/07/04 09:20:44;;;;;;;1.30;1.20;;;22.90;47.70;;;;;;4936435;29;20488;-57
2022/07/04 09:23:18;;;;;;;1.23;1.10;;;22.90;47.70;;;;;;4939012;29;20428;-58
2022/07/04 09:25:44;;;;;;;1.57;1.47;;;22.90;47.80;;;;;;4940100;29;20190;-56
2022/07/04 09:28:10;;;;;;;1.47;1.37;;;22.90;47.70;;;;;;4942674;29;20922;-56
2022/07/04 09:30:49;;;;;;;1.33;1.23;;;22.90;47.70;;;;;;4938616;29;20702;-56
2022/07/04 09:33:17;;;;;;;1.50;1.40;;;22.90;47.70;;;;;;4935736;29;20242;-58
2022/07/04 09:35:43;;;;;;;1.17;1.10;;;22.90;47.80;;;;;;4937470;29;20412;-55
2022/07/04 09:38:11;;;;;;;1.23;1.13;;;22.90;47.80;;;;;;4937262;29;20428;-59
2022/07/04 09:43:24;;;;;;;1.60;1.50;;;22.90;47.70;;;;;;4934787;29;20919;-60
2022/07/04 09:45:57;;;;;;;1.50;1.40;;;22.90;47.70;;;;;;4938701;29;20896;-56
2022/07/04 09:48:24;;;;;;;1.30;1.20;;;22.90;47.70;;;;;;4941200;29;20468;-60
2022/07/04 09:50:50;;;;;;;1.30;1.20;;;22.90;47.80;;;;;;4939424;29;20436;-56
2022/07/04 09:53:16;;;;;;;1.30;1.20;;;22.90;47.80;;;;;;4938136;29;20935;-59
2022/07/04 09:55:41;;;;;;;1.60;1.50;;;22.90;47.80;;;;;;4937754;29;20428;-59
2022/07/04 09:58:08;;;;;;;1.40;1.30;;;22.90;47.70;;;;;;4937308;29;20194;-58
2022/07/04 10:00:36;;;;;;;1.70;1.60;;;22.90;47.70;;;;;;4936239;29;20186;-56
2022/07/04 10:03:21;;;;;;;1.30;1.20;;;22.90;47.70;;;;;;4944246;29;20487;-56
2022/07/04 10:06:04;;;;;;;1.30;1.20;;;23.00;47.70;;;;;;4938259;29;20417;-56
2022/07/04 10:08:29;;;;;;;1.63;1.47;;;23.00;48.50;;;;;;4942461;29;20457;-60
2022/07/04 10:10:59;;;;;;;1.40;1.30;;;22.90;47.80;;;;;;4937926;29;20429;-56
2022/07/04 10:13:25;;;;;;;1.40;1.30;;;23.00;47.80;;;;;;4936202;29;20211;-59
2022/07/04 10:15:51;;;;;;;1.60;1.50;;;22.90;47.70;;;;;;4937917;29;20983;-58
2022/07/04 10:18:19;;;;;;;1.60;1.50;;;22.90;47.70;;;;;;4941375;29;20424;-56
2022/07/04 10:20:45;;;;;;;1.50;1.40;;;22.90;47.70;;;;;;4937977;29;20202;-56
2022/07/04 10:23:11;;;;;;;1.40;1.30;;;23.00;47.70;;;;;;4938704;29;20463;-57
2022/07/04 10:25:38;;;;;;;1.50;1.40;;;23.00;47.70;;;;;;4938503;29;20899;-56
2022/07/04 10:28:04;;;;;;;1.50;1.40;;;23.00;47.80;;;;;;4935087;29;20187;-55
2022/07/04 10:30:33;;;;;;;1.67;1.57;;;23.00;47.70;;;;;;4936838;29;20453;-57
2022/07/04 10:33:01;;;;;;;1.60;1.50;;;23.00;47.80;;;;;;4936226;29;20543;-56
2022/07/04 10:35:47;;;;;;;1.43;1.33;;;23.00;47.70;;;;;;4943726;29;20433;-58
2022/07/04 10:38:14;;;;;;;1.43;1.33;;;23.00;47.70;;;;;;4939500;29;20437;-56
2022/07/04 10:41:06;;;;;;;1.50;1.40;;;23.00;47.70;;;;;;4935293;29;20516;-60
2022/07/04 10:43:34;;;;;;;1.37;1.27;;;23.00;47.80;;;;;;4938442;29;20439;-56
2022/07/04 10:46:05;;;;;;;3.50;1.50;;;23.00;47.80;;;;;;4937250;29;20479;-56
2022/07/04 10:48:30;;;;;;;1.63;1.53;;;23.00;47.80;;;;;;4937329;29;21358;-58
2022/07/04 10:51:04;;;;;;;1.40;1.30;;;23.00;47.70;;;;;;4939399;29;20441;-59
2022/07/04 10:53:30;;;;;;;1.40;1.30;;;23.00;47.80;;;;;;4940164;29;20186;-61
2022/07/04 10:56:35;;;;;;;1.43;1.33;;;23.00;47.80;;;;;;4937414;29;20851;-63
2022/07/04 10:59:11;;;;;;;1.80;1.70;;;23.00;47.70;;;;;;4938697;29;20432;-56
2022/07/04 11:01:37;;;;;;;2.80;1.60;;;23.00;47.70;;;;;;4938619;29;20424;-60
2022/07/04 11:04:02;;;;;;;1.60;1.50;;;23.00;47.80;;;;;;4934735;29;20962;-56
2022/07/04 11:06:37;;;;;;;1.73;1.63;;;23.00;47.70;;;;;;4939425;29;20229;-57
2022/07/04 11:09:38;;;;;;;1.87;1.77;;;23.00;48.50;;;;;;4933908;29;20297;-57
2022/07/04 11:12:06;;;;;;;1.63;1.53;;;23.00;47.70;;;;;;4840703;29;20838;-55
2022/07/04 11:14:37;;;;;;;1.40;1.30;;;23.00;47.80;;;;;;4919117;29;20516;-62
2022/07/04 11:17:05;;;;;;;1.73;1.63;;;23.00;47.70;;;;;;4935808;29;20433;-55
2022/07/04 11:19:30;;;;;;;1.60;1.50;;;23.00;47.70;;;;;;4938609;29;20472;-57
2022/07/04 11:21:58;;;;;;;1.70;1.60;;;22.90;47.70;;;;;;4935796;29;20833;-59
2022/07/04 11:24:24;;;;;;;1.70;1.60;;;23.00;47.70;;;;;;4942130;29;20222;-57
2022/07/04 11:26:50;;;;;;;1.47;1.37;;;23.00;47.80;;;;;;4936607;29;20429;-59
2022/07/04 11:29:16;;;;;;;1.57;1.47;;;23.00;47.70;;;;;;4939181;29;21224;-55
2022/07/04 11:31:44;;;;;;;1.80;1.70;;;23.00;47.70;;;;;;4933961;29;20448;-55
2022/07/04 11:34:10;;;;;;;1.47;1.37;;;23.00;47.70;;;;;;4936858;29;20229;-55
2022/07/04 11:36:39;;;;;;;1.50;1.40;;;23.00;47.60;;;;;;4920964;29;20425;-59
2022/07/04 11:39:11;;;;;;;1.70;1.60;;;23.00;47.70;;;;;;4937595;29;20432;-57
2022/07/04 11:45:02;;;;;;;1.50;1.40;;;23.00;47.70;;;;;;4939087;29;20507;-59
2022/07/04 11:47:42;;;;;;;1.60;1.50;;;23.00;47.80;;;;;;4935314;29;20432;-60
2022/07/04 11:50:09;;;;;;;2.70;1.67;;;23.00;47.70;;;;;;4936680;29;20670;-57
2022/07/04 11:52:37;;;;;;;1.90;1.80;;;23.00;47.70;;;;;;4934099;29;20444;-56
2022/07/04 11:55:08;;;;;;;1.60;1.50;;;23.00;47.70;;;;;;4936731;29;20801;-55
2022/07/04 11:57:36;;;;;;;1.23;1.20;;;23.00;47.70;;;;;;4938874;29;20420;-57
2022/07/04 12:00:06;;;;;;;1.60;1.50;;;23.00;47.70;;;;;;4933597;29;20937;-56
2022/07/04 12:02:33;;;;;;;1.70;1.60;;;23.00;47.70;;;;;;4935009;29;20443;-55
2022/07/04 12:05:00;;;;;;;1.67;1.57;;;23.00;47.70;;;;;;4937489;29;20644;-58
2022/07/04 12:07:27;;;;;;;1.90;1.80;;;23.00;47.60;;;;;;4937655;29;20425;-59
2022/07/04 12:09:54;;;;;;;1.67;1.57;;;23.00;47.70;;;;;;4932065;29;20460;-56
2022/07/04 12:12:21;;;;;;;1.80;1.70;;;23.00;47.70;;;;;;4937744;29;20473;-55
2022/07/04 12:14:58;;;;;;;1.60;1.50;;;23.00;47.70;;;;;;4937177;29;20448;-56
2022/07/04 12:17:30;;;;;;;1.70;1.60;;;23.00;47.60;;;;;;4936517;29;20424;-66
2022/07/04 12:19:58;;;;;;;1.73;1.63;;;23.00;47.70;;;;;;4933748;29;20484;-59
2022/07/04 12:22:30;;;;;;;1.70;1.60;;;23.00;47.70;;;;;;4935388;29;20908;-56
2022/07/04 12:24:56;;;;;;;1.60;1.50;;;23.00;47.60;;;;;;4934081;29;20422;-56
2022/07/04 12:27:24;;;;;;;1.80;1.70;;;23.00;47.70;;;;;;4934624;29;20524;-60
2022/07/04 12:29:51;;;;;;;1.50;1.40;;;23.00;47.60;;;;;;4939134;29;20469;-56
2022/07/04 12:32:17;;;;;;;2.00;1.90;;;23.00;47.60;;;;;;4936202;29;20476;-57
2022/07/04 12:34:43;;;;;;;1.60;1.50;;;23.00;47.60;;;;;;4934663;29;20473;-55
2022/07/04 12:37:14;;;;;;;1.70;1.60;;;23.00;47.60;;;;;;4934294;29;20202;-55
2022/07/04 12:39:43;;;;;;;1.73;1.63;;;23.00;47.50;;;;;;4936041;29;20420;-59
2022/07/04 12:42:17;;;;;;;1.70;1.60;;;23.00;47.60;;;;;;4938760;29;20484;-56
2022/07/04 12:44:45;;;;;;;1.90;1.80;;;23.00;47.60;;;;;;4932115;29;20456;-55
2022/07/04 12:47:12;;;;;;;1.87;1.77;;;23.00;47.60;;;;;;4935242;29;20437;-57
2022/07/04 12:49:43;;;;;;;1.60;1.50;;;23.00;47.60;;;;;;4932848;29;20455;-56
2022/07/04 12:52:15;;;;;;;1.70;1.60;;;23.10;47.70;;;;;;4935966;29;20433;-57
2022/07/04 12:54:42;;;;;;;1.80;1.70;;;23.10;48.20;;;;;;4934721;29;20536;-57
2022/07/04 12:57:14;;;;;;;2.20;1.60;;;23.00;47.60;;;;;;4934938;29;20461;-55
2022/07/04 12:59:41;;;;;;;1.70;1.60;;;23.00;47.50;;;;;;4934477;29;20444;-55
2022/07/04 13:02:08;;;;;;;1.57;1.47;;;23.00;47.50;;;;;;4931063;29;20433;-56
2022/07/04 13:04:34;;;;;;;1.80;1.70;;;23.00;47.60;;;;;;4932684;29;20433;-56
2022/07/04 13:07:16;;;;;;;1.73;1.63;;;23.00;47.50;;;;;;4933699;29;20425;-56